White Settlement, Texas
Current Conditions -  °F | °C
As of 1:52 PM on Saturday 25 Oct 2014 (Local Time) from KNFW Reporting Station
Clear Clear  
Wind Chill: 90°   Ceiling: Unl
Heat Index: 90°   Visibility: 10mi
Dew Point: 59°   Wind: 6mph
Humidity: 35%   Direction: NA
Pressure: 30.13"   Gusts: NA
Location:  32.7792°N, 97.5244°W
Report Text: KNFW 251852Z VRB05KT 10SM CLR 32/15 A3013 RMK AO2 SLP187 T03220150 CHINO N VISNO N $
Loading
Personal Weather Stations






























Interactive Weather Map
Tropical Storm Tracking
New forecast layout! Learn more

10-Day Weather Forecast

Advertisements
Track Severe Weather on mobile